createdAt,value
2023-04-28T00:00:29.103Z,92.80
2023-04-28T00:02:58.351Z,92.80
2023-04-28T00:05:28.253Z,92.80
2023-04-28T00:07:58.683Z,92.80
2023-04-28T00:10:27.704Z,92.80
2023-04-28T00:12:56.673Z,92.80
2023-04-28T00:15:25.952Z,92.80
2023-04-28T00:17:55.425Z,92.80
2023-04-28T00:20:24.660Z,92.80
2023-04-28T00:22:53.654Z,92.90
2023-04-28T00:25:24.081Z,92.90
2023-04-28T00:27:53.119Z,92.90
2023-04-28T00:30:22.314Z,92.90
2023-04-28T00:32:51.757Z,92.90
2023-04-28T00:35:21.139Z,92.90
2023-04-28T00:37:50.482Z,92.90
2023-04-28T00:40:19.905Z,92.90
2023-04-28T00:42:50.463Z,93.00
2023-04-28T00:45:19.990Z,92.90
2023-04-28T00:47:49.193Z,92.90
2023-04-28T00:50:18.531Z,92.90
2023-04-28T00:52:48.669Z,92.90
2023-04-28T00:55:18.049Z,92.90
2023-04-28T00:57:49.355Z,92.90
2023-04-28T01:00:18.366Z,92.90
2023-04-28T01:02:47.414Z,92.90
2023-04-28T01:05:17.798Z,92.70
2023-04-28T01:07:47.582Z,92.80
2023-04-28T01:10:16.679Z,92.80
2023-04-28T01:12:46.090Z,92.80
2023-04-28T01:15:19.271Z,92.80
2023-04-28T01:17:49.945Z,92.80
2023-04-28T01:20:19.073Z,92.80
2023-04-28T01:22:48.216Z,92.70
2023-04-28T01:25:18.932Z,92.70
2023-04-28T01:27:48.047Z,92.80
2023-04-28T01:30:17.274Z,92.80
2023-04-28T01:32:46.347Z,92.80
2023-04-28T01:35:15.519Z,92.70
2023-04-28T01:37:44.667Z,92.70
2023-04-28T01:40:14.650Z,92.70
2023-04-28T01:42:45.133Z,92.70
2023-04-28T01:45:14.227Z,92.70
2023-04-28T01:47:43.277Z,92.70
2023-04-28T01:50:12.614Z,92.60
2023-04-28T01:52:41.611Z,92.70
2023-04-28T01:55:11.053Z,92.70
2023-04-28T01:57:40.789Z,92.80
2023-04-28T02:00:12.553Z,92.80
2023-04-28T02:02:51.486Z,92.80
2023-04-28T02:05:20.599Z,92.80
2023-04-28T02:07:50.437Z,92.80
2023-04-28T02:10:19.483Z,92.80
2023-04-28T02:12:48.564Z,92.90
2023-04-28T02:15:20.649Z,92.90
2023-04-28T02:17:49.747Z,92.90
2023-04-28T02:20:18.923Z,92.90
2023-04-28T02:22:47.912Z,92.90
2023-04-28T02:25:16.952Z,92.80
2023-04-28T02:27:46.152Z,92.80
2023-04-28T02:30:15.421Z,92.80
2023-04-28T02:32:46.025Z,92.80
2023-04-28T02:35:17.929Z,92.80
2023-04-28T02:37:46.926Z,92.80
2023-04-28T02:40:16.233Z,92.90
2023-04-28T02:42:45.272Z,93.00
2023-04-28T02:45:14.467Z,93.00
2023-04-28T02:47:43.489Z,93.00
2023-04-28T02:50:13.961Z,93.00
2023-04-28T02:52:43.015Z,93.00
2023-04-28T02:55:12.045Z,93.10
2023-04-28T02:57:41.166Z,93.20
2023-04-28T03:00:11.505Z,93.20
2023-04-28T03:02:47.312Z,93.20
2023-04-28T03:05:17.903Z,93.20
2023-04-28T03:07:47.129Z,93.20
2023-04-28T03:10:17.328Z,93.10
2023-04-28T03:12:46.397Z,93.50
2023-04-28T03:15:15.515Z,93.10
2023-04-28T03:17:45.316Z,93.10
2023-04-28T03:20:14.710Z,93.20
2023-04-28T03:22:45.137Z,93.20
2023-04-28T03:25:14.508Z,93.20
2023-04-28T03:27:53.939Z,93.40
2023-04-28T03:30:23.122Z,93.10
2023-04-28T03:32:52.228Z,93.20
2023-04-28T03:35:21.643Z,93.20
2023-04-28T03:37:52.344Z,93.20
2023-04-28T03:40:21.635Z,93.20
2023-04-28T03:43:09.392Z,93.20
2023-04-28T03:45:43.232Z,93.20
2023-04-28T03:48:12.440Z,93.20
2023-04-28T03:50:42.641Z,93.20
2023-04-28T03:53:13.127Z,93.20
2023-04-28T03:55:42.323Z,93.20
2023-04-28T03:58:11.347Z,93.10
2023-04-28T04:00:40.405Z,93.10
2023-04-28T04:03:09.733Z,93.10
2023-04-28T04:05:40.816Z,93.20
2023-04-28T04:08:10.397Z,93.20
2023-04-28T04:10:40.786Z,93.20
2023-04-28T04:13:09.893Z,93.20
2023-04-28T04:15:38.934Z,93.20
2023-04-28T04:18:08.050Z,93.20
2023-04-28T04:20:57.273Z,93.20
2023-04-28T04:23:26.435Z,93.20
2023-04-28T04:25:57.660Z,93.20
2023-04-28T04:28:26.723Z,93.30
2023-04-28T04:30:55.799Z,93.20
2023-04-28T04:33:25.187Z,93.20
2023-04-28T04:35:55.044Z,93.20
2023-04-28T04:38:24.843Z,93.20
2023-04-28T04:40:53.971Z,93.20
2023-04-28T04:43:24.407Z,93.10
2023-04-28T04:45:53.512Z,93.50
2023-04-28T04:48:22.654Z,93.20
2023-04-28T04:50:51.684Z,93.20
2023-04-28T04:53:20.684Z,93.10
2023-04-28T04:55:49.876Z,93.10
2023-04-28T04:58:19.115Z,93.10
2023-04-28T05:01:18.894Z,93.10
2023-04-28T05:03:48.108Z,93.10
2023-04-28T05:06:17.220Z,93.00
2023-04-28T05:08:48.864Z,93.10
2023-04-28T05:11:17.987Z,93.10
2023-04-28T05:13:47.140Z,93.00
2023-04-28T05:16:16.685Z,93.10
2023-04-28T05:19:13.494Z,93.10
2023-04-28T05:21:42.723Z,93.00
2023-04-28T05:24:11.734Z,93.00
2023-04-28T05:26:40.803Z,93.00
2023-04-28T05:29:11.952Z,93.00
2023-04-28T05:31:40.996Z,93.00
2023-04-28T05:34:12.734Z,93.00
2023-04-28T05:36:42.326Z,92.90
2023-04-28T05:39:13.259Z,92.90
2023-04-28T05:41:43.799Z,92.90
2023-04-28T05:44:13.453Z,93.00
2023-04-28T05:46:42.675Z,93.00
2023-04-28T05:49:13.403Z,93.00
2023-04-28T05:51:42.900Z,93.00
2023-04-28T05:54:11.900Z,93.00
2023-04-28T05:56:46.032Z,93.00
2023-04-28T05:59:15.964Z,93.00
2023-04-28T06:01:45.150Z,93.00
2023-04-28T06:04:16.109Z,93.00
2023-04-28T06:06:45.699Z,93.00
2023-04-28T06:09:15.144Z,93.00
2023-04-28T06:11:44.463Z,93.00
2023-04-28T06:14:13.624Z,93.00
2023-04-28T06:16:44.504Z,93.00
2023-04-28T06:19:16.146Z,93.00
2023-04-28T06:21:46.732Z,93.10
2023-04-28T06:24:23.411Z,93.10
2023-04-28T06:26:55.768Z,93.00
2023-04-28T06:29:25.348Z,93.00
2023-04-28T06:31:57.658Z,93.00
2023-04-28T06:34:31.731Z,93.00
2023-04-28T06:37:00.956Z,93.00
2023-04-28T06:39:30.159Z,93.10
2023-04-28T06:41:59.256Z,93.10
2023-04-28T06:44:30.382Z,93.10
2023-04-28T06:46:59.630Z,93.10
2023-04-28T06:49:30.089Z,93.10
2023-04-28T06:52:03.441Z,93.20
2023-04-28T06:54:32.827Z,93.20
2023-04-28T06:57:02.276Z,93.20
2023-04-28T06:59:32.397Z,93.20
2023-04-28T07:02:01.635Z,93.10
2023-04-28T07:04:32.188Z,93.10
2023-04-28T07:07:01.508Z,93.10
2023-04-28T07:09:31.567Z,93.20
2023-04-28T07:12:00.762Z,93.20
2023-04-28T07:14:29.941Z,93.20
2023-04-28T07:16:58.953Z,93.70
2023-04-28T07:19:27.994Z,93.30
2023-04-28T07:21:58.370Z,93.20
2023-04-28T07:24:27.441Z,93.20
2023-04-28T07:26:57.209Z,93.20
2023-04-28T07:29:28.929Z,93.20
2023-04-28T07:31:58.060Z,93.20
2023-04-28T07:34:27.528Z,93.10
2023-04-28T07:36:58.666Z,93.10
2023-04-28T07:39:27.832Z,93.00
2023-04-28T07:41:58.111Z,93.00
2023-04-28T07:44:27.120Z,93.00
2023-04-28T07:46:56.376Z,93.00
2023-04-28T07:49:25.482Z,92.90
2023-04-28T07:51:55.792Z,92.90
2023-04-28T07:54:26.848Z,92.90
2023-04-28T07:56:57.986Z,92.90
2023-04-28T07:59:27.094Z,92.90
2023-04-28T08:01:57.019Z,92.80
2023-04-28T08:04:26.889Z,92.70
2023-04-28T08:06:56.375Z,92.70
2023-04-28T08:09:26.864Z,92.60
2023-04-28T08:11:55.910Z,92.60
2023-04-28T08:14:25.118Z,92.60
2023-04-28T08:16:54.146Z,92.70
2023-04-28T08:19:23.166Z,92.70
2023-04-28T08:21:52.180Z,92.70
2023-04-28T08:24:21.309Z,92.70
2023-04-28T08:26:51.812Z,92.70
2023-04-28T08:29:20.826Z,92.70
2023-04-28T08:31:49.867Z,92.70
2023-04-28T08:34:19.088Z,92.70
2023-04-28T08:36:48.477Z,92.70
2023-04-28T08:39:17.935Z,92.70
2023-04-28T08:41:47.199Z,92.70
2023-04-28T08:44:17.911Z,92.60
2023-04-28T08:46:50.952Z,92.70
2023-04-28T08:49:20.332Z,92.70
2023-04-28T08:51:57.314Z,92.70
2023-04-28T08:54:31.259Z,92.70
2023-04-28T08:57:01.287Z,92.70
2023-04-28T08:59:32.519Z,92.60
2023-04-28T09:02:01.640Z,92.70
2023-04-28T09:04:31.029Z,92.80
2023-04-28T09:07:00.185Z,92.70
2023-04-28T09:09:34.178Z,92.60
2023-04-28T09:12:06.326Z,92.60
2023-04-28T09:14:38.658Z,92.80
2023-04-28T09:17:13.080Z,92.80
2023-04-28T09:19:43.557Z,92.80
2023-04-28T09:22:24.667Z,92.80
2023-04-28T09:24:56.408Z,92.80
2023-04-28T09:27:29.357Z,92.70
2023-04-28T09:29:59.942Z,92.60
2023-04-28T09:32:29.592Z,92.60
2023-04-28T09:34:59.731Z,92.50
2023-04-28T09:37:31.090Z,92.60
2023-04-28T09:40:04.635Z,92.60
2023-04-28T09:42:35.296Z,92.60
2023-04-28T09:45:07.831Z,92.50
2023-04-28T09:47:39.295Z,92.50
2023-04-28T09:50:09.627Z,92.50
2023-04-28T09:52:38.723Z,92.50
2023-04-28T09:55:09.741Z,92.40
2023-04-28T09:57:39.352Z,92.50
2023-04-28T10:00:10.840Z,92.50
2023-04-28T10:02:43.888Z,92.60
2023-04-28T10:05:14.080Z,92.50
2023-04-28T10:07:43.262Z,92.60
2023-04-28T10:10:14.787Z,92.60
2023-04-28T10:12:44.959Z,92.70
2023-04-28T10:15:15.354Z,92.80
2023-04-28T10:17:44.443Z,92.80
2023-04-28T10:20:16.540Z,92.70
2023-04-28T10:23:00.078Z,92.70
2023-04-28T10:25:32.450Z,92.70
2023-04-28T10:28:02.424Z,92.70
2023-04-28T10:30:33.044Z,92.60
2023-04-28T10:33:26.546Z,92.70
2023-04-28T10:35:56.082Z,92.70
2023-04-28T10:38:25.180Z,92.70
2023-04-28T10:40:55.236Z,92.70
2023-04-28T10:43:39.704Z,92.80
2023-04-28T10:46:13.351Z,92.80
2023-04-28T10:48:58.950Z,92.80
2023-04-28T10:51:33.179Z,93.00
2023-04-28T10:54:21.363Z,92.90
2023-04-28T10:57:21.918Z,93.00
2023-04-28T10:59:51.702Z,93.10
2023-04-28T11:02:44.527Z,92.90
2023-04-28T11:05:19.324Z,93.00
2023-04-28T11:08:31.757Z,92.90
2023-04-28T11:11:21.617Z,93.00
2023-04-28T11:13:51.128Z,93.40
2023-04-28T11:16:25.791Z,92.90
2023-04-28T11:19:04.849Z,92.90
2023-04-28T11:21:34.885Z,92.90
2023-04-28T11:24:11.246Z,92.80
2023-04-28T11:26:40.324Z,92.80
2023-04-28T11:29:09.715Z,92.80
2023-04-28T11:31:39.486Z,92.60
2023-04-28T11:34:14.550Z,92.50
2023-04-28T11:36:43.760Z,92.50
2023-04-28T11:39:13.882Z,92.50
2023-04-28T11:41:44.059Z,92.60
2023-04-28T11:44:14.126Z,92.60
2023-04-28T11:46:50.594Z,92.60
2023-04-28T11:49:21.869Z,92.60
2023-04-28T11:51:50.943Z,92.50
2023-04-28T11:54:25.151Z,92.50
2023-04-28T11:56:55.231Z,92.50
2023-04-28T11:59:28.487Z,92.50
2023-04-28T12:01:59.536Z,92.40
2023-04-28T12:04:32.006Z,92.30
2023-04-28T12:07:03.844Z,92.20
2023-04-28T12:09:33.529Z,92.20
2023-04-28T12:12:04.963Z,92.10
2023-04-28T12:14:54.578Z,92.20
2023-04-28T12:17:27.522Z,92.20
2023-04-28T12:20:00.989Z,92.20
2023-04-28T12:22:31.064Z,92.10
2023-04-28T12:25:08.284Z,92.10
2023-04-28T12:27:39.302Z,92.10
2023-04-28T12:30:26.506Z,92.00
2023-04-28T12:32:56.214Z,92.10
2023-04-28T12:35:28.056Z,92.00
2023-04-28T12:37:59.129Z,91.80
2023-04-28T12:40:28.450Z,91.80
2023-04-28T12:42:57.888Z,91.70
2023-04-28T12:45:28.110Z,91.60
2023-04-28T12:47:58.535Z,91.50
2023-04-28T12:50:32.401Z,91.50
2023-04-28T12:53:01.487Z,91.40
2023-04-28T12:55:30.931Z,91.40
2023-04-28T12:58:00.552Z,91.40
2023-04-28T13:00:29.657Z,91.40
2023-04-28T13:03:01.023Z,91.30
2023-04-28T13:05:32.519Z,91.30
2023-04-28T13:08:01.531Z,91.30
2023-04-28T13:10:32.518Z,91.20
2023-04-28T13:13:02.060Z,91.10
2023-04-28T13:15:36.748Z,91.10
2023-04-28T13:18:08.107Z,91.10
2023-04-28T13:20:40.970Z,91.10
2023-04-28T13:23:10.152Z,91.10
2023-04-28T13:25:39.175Z,91.10
2023-04-28T13:28:08.249Z,91.00
2023-04-28T13:30:37.317Z,91.10
2023-04-28T13:33:06.465Z,91.00
2023-04-28T13:35:35.603Z,91.10
2023-04-28T13:38:07.101Z,91.10
2023-04-28T13:40:36.410Z,91.10
2023-04-28T13:43:05.530Z,91.00
2023-04-28T13:45:34.574Z,91.00
2023-04-28T13:48:04.161Z,91.00
2023-04-28T13:50:33.286Z,91.10
2023-04-28T13:53:05.068Z,91.10
2023-04-28T13:55:35.610Z,91.10
2023-04-28T13:58:06.043Z,91.10
2023-04-28T14:00:37.498Z,91.10
2023-04-28T14:03:06.484Z,91.10
2023-04-28T14:05:48.255Z,91.20
2023-04-28T14:08:20.121Z,91.00
2023-04-28T14:10:51.939Z,91.00
2023-04-28T14:13:21.469Z,90.90
2023-04-28T14:15:58.481Z,90.90
2023-04-28T14:18:28.005Z,90.90
2023-04-28T14:20:57.213Z,90.90
2023-04-28T14:23:26.831Z,90.90
2023-04-28T14:25:58.194Z,90.80
2023-04-28T14:28:27.070Z,90.80
2023-04-28T14:30:57.446Z,90.80
2023-04-28T14:33:27.025Z,90.70
2023-04-28T14:35:56.264Z,90.70
2023-04-28T14:38:25.632Z,90.80
2023-04-28T14:40:56.154Z,90.70
2023-04-28T14:43:25.758Z,90.60
2023-04-28T14:45:55.056Z,90.60
2023-04-28T14:48:24.325Z,90.50
2023-04-28T14:50:53.576Z,90.50
2023-04-28T14:53:23.741Z,90.50
2023-04-28T14:55:53.721Z,90.40
2023-04-28T14:58:25.901Z,90.50
2023-04-28T15:00:55.075Z,90.50
2023-04-28T15:03:24.488Z,90.50
2023-04-28T15:05:54.503Z,90.50
2023-04-28T15:08:23.668Z,90.50
2023-04-28T15:10:52.704Z,90.60
2023-04-28T15:13:22.237Z,90.60
2023-04-28T15:15:52.771Z,90.70
2023-04-28T15:18:22.245Z,90.80
2023-04-28T15:20:51.997Z,90.80
2023-04-28T15:23:21.157Z,90.70
2023-04-28T15:25:53.405Z,90.60
2023-04-28T15:28:22.886Z,90.60
2023-04-28T15:30:53.492Z,90.60
2023-04-28T15:33:22.782Z,90.50
2023-04-28T15:35:51.928Z,90.50
2023-04-28T15:38:21.019Z,90.40
2023-04-28T15:40:50.010Z,90.30
2023-04-28T15:43:19.110Z,90.30
2023-04-28T15:45:48.153Z,90.20
2023-04-28T15:48:18.642Z,90.20
2023-04-28T15:50:47.880Z,90.20
2023-04-28T15:53:17.472Z,90.10
2023-04-28T15:55:46.691Z,90.00
2023-04-28T15:58:15.866Z,90.00
2023-04-28T16:00:45.935Z,90.00
2023-04-28T16:03:15.315Z,90.00
2023-04-28T16:05:46.326Z,90.00
2023-04-28T16:08:15.910Z,90.00
2023-04-28T16:10:45.210Z,89.90
2023-04-28T16:13:14.650Z,90.00
2023-04-28T16:15:43.708Z,90.00
2023-04-28T16:18:12.954Z,89.90
2023-04-28T16:20:42.293Z,89.90
2023-04-28T16:23:14.153Z,89.90
2023-04-28T16:25:43.559Z,89.90
2023-04-28T16:28:12.698Z,89.90
2023-04-28T16:30:42.100Z,89.90
2023-04-28T16:33:11.364Z,89.90
2023-04-28T16:35:40.456Z,89.80
2023-04-28T16:38:09.528Z,89.90
2023-04-28T16:40:40.045Z,89.90
2023-04-28T16:43:09.042Z,89.90
2023-04-28T16:45:38.088Z,89.80
2023-04-28T16:48:07.372Z,89.50
2023-04-28T16:50:37.722Z,89.30
2023-04-28T16:53:07.465Z,89.20
2023-04-28T16:55:36.729Z,89.20
2023-04-28T16:58:07.586Z,88.90
2023-04-28T17:00:36.615Z,88.70
2023-04-28T17:03:05.978Z,88.60
2023-04-28T17:05:35.152Z,88.50
2023-04-28T17:08:04.217Z,88.40
2023-04-28T17:10:33.553Z,88.50
2023-04-28T17:13:02.568Z,88.50
2023-04-28T17:15:33.092Z,88.40
2023-04-28T17:18:02.316Z,88.60
2023-04-28T17:20:31.564Z,88.70
2023-04-28T17:23:00.586Z,88.70
2023-04-28T17:25:29.709Z,88.70
2023-04-28T17:27:59.681Z,88.60
2023-04-28T17:30:28.719Z,88.70
2023-04-28T17:32:59.855Z,88.60
2023-04-28T17:35:29.134Z,88.50
2023-04-28T17:37:58.260Z,88.50
2023-04-28T17:40:28.014Z,88.40
2023-04-28T17:42:57.390Z,88.30
2023-04-28T17:45:26.447Z,88.10
2023-04-28T17:47:57.767Z,88.00
2023-04-28T17:50:28.037Z,88.00
2023-04-28T17:52:56.978Z,88.00
2023-04-28T17:55:26.372Z,88.00
2023-04-28T17:57:55.364Z,88.10
2023-04-28T18:00:24.606Z,88.10
2023-04-28T18:02:55.207Z,88.00
2023-04-28T18:05:26.086Z,88.10
2023-04-28T18:07:57.143Z,87.90
2023-04-28T18:10:28.200Z,87.90
2023-04-28T18:12:58.160Z,88.00
2023-04-28T18:15:27.735Z,88.10
2023-04-28T18:17:56.951Z,88.00
2023-04-28T18:20:26.237Z,88.00
2023-04-28T18:22:57.326Z,88.00
2023-04-28T18:25:26.387Z,88.10
2023-04-28T18:27:55.454Z,88.20
2023-04-28T18:30:27.382Z,88.20
2023-04-28T18:32:56.467Z,88.30
2023-04-28T18:35:25.458Z,88.30
2023-04-28T18:37:54.940Z,88.10
2023-04-28T18:40:26.264Z,87.60
2023-04-28T18:42:55.038Z,87.50
2023-04-28T18:45:24.203Z,87.50
2023-04-28T18:47:53.451Z,87.40
2023-04-28T18:50:24.263Z,87.50
2023-04-28T18:52:53.605Z,87.60
2023-04-28T18:55:24.198Z,87.70
2023-04-28T18:57:54.023Z,87.80
2023-04-28T19:00:23.601Z,87.90
2023-04-28T19:02:52.751Z,87.90
2023-04-28T19:05:22.520Z,88.10
2023-04-28T19:07:51.531Z,88.20
2023-04-28T19:10:20.808Z,88.10
2023-04-28T19:12:51.227Z,88.30
2023-04-28T19:15:20.536Z,88.30
2023-04-28T19:17:49.734Z,88.50
2023-04-28T19:20:19.139Z,88.60
2023-04-28T19:22:48.330Z,88.50
2023-04-28T19:25:17.823Z,88.60
2023-04-28T19:27:47.024Z,88.60
2023-04-28T19:30:17.818Z,88.60
2023-04-28T19:32:46.835Z,88.60
2023-04-28T19:35:16.499Z,88.60
2023-04-28T19:37:45.660Z,88.60
2023-04-28T19:40:15.001Z,88.70
2023-04-28T19:42:44.035Z,88.80
2023-04-28T19:45:13.305Z,88.90
2023-04-28T19:47:43.791Z,89.00
2023-04-28T19:50:13.030Z,89.20
2023-04-28T19:52:42.059Z,89.30
2023-04-28T19:55:11.584Z,89.40
2023-04-28T19:57:41.051Z,89.50
2023-04-28T20:00:11.173Z,89.50
2023-04-28T20:02:40.523Z,89.50
2023-04-28T20:05:11.672Z,89.60
2023-04-28T20:07:40.876Z,89.70
2023-04-28T20:10:10.516Z,89.70
2023-04-28T20:12:39.689Z,89.70
2023-04-28T20:15:09.964Z,89.80
2023-04-28T20:17:39.017Z,89.80
2023-04-28T20:20:13.572Z,89.80
2023-04-28T20:22:42.583Z,89.80
2023-04-28T20:25:12.216Z,89.80
2023-04-28T20:27:41.225Z,89.90
2023-04-28T20:30:11.146Z,89.90
2023-04-28T20:32:40.319Z,89.90
2023-04-28T20:35:11.304Z,89.90
2023-04-28T20:37:40.362Z,89.90
2023-04-28T20:40:11.717Z,89.90
2023-04-28T20:42:40.722Z,89.90
2023-04-28T20:45:10.108Z,89.80
2023-04-28T20:47:39.160Z,89.60
2023-04-28T20:50:13.409Z,89.60
2023-04-28T20:52:42.521Z,89.70
2023-04-28T20:55:12.139Z,89.60
2023-04-28T20:57:41.193Z,89.70
2023-04-28T21:00:11.622Z,89.70
2023-04-28T21:02:41.019Z,89.80
2023-04-28T21:05:10.790Z,89.80
2023-04-28T21:07:41.207Z,89.80
2023-04-28T21:10:11.383Z,89.90
2023-04-28T21:12:41.455Z,89.90
2023-04-28T21:15:11.008Z,90.00
2023-04-28T21:17:40.048Z,89.90
2023-04-28T21:20:09.986Z,89.90
2023-04-28T21:22:40.386Z,89.90
2023-04-28T21:25:10.179Z,89.80
2023-04-28T21:27:39.243Z,89.80
2023-04-28T21:30:10.309Z,89.70
2023-04-28T21:32:39.470Z,89.70
2023-04-28T21:35:09.209Z,89.70
2023-04-28T21:37:38.332Z,89.80
2023-04-28T21:40:10.344Z,89.90
2023-04-28T21:42:39.395Z,89.80
2023-04-28T21:45:09.924Z,89.80
2023-04-28T21:47:42.071Z,89.80
2023-04-28T21:50:12.623Z,89.80
2023-04-28T21:52:41.640Z,89.80
2023-04-28T21:55:12.207Z,89.80
2023-04-28T21:57:41.261Z,89.70
2023-04-28T22:00:12.660Z,89.60
2023-04-28T22:02:44.850Z,89.70
2023-04-28T22:05:13.961Z,89.70
2023-04-28T22:07:43.416Z,89.70
2023-04-28T22:10:14.358Z,89.70
2023-04-28T22:12:43.362Z,89.70
2023-04-28T22:15:12.754Z,89.60
2023-04-28T22:17:41.842Z,89.60
2023-04-28T22:20:11.514Z,89.40
2023-04-28T22:22:40.916Z,89.30
2023-04-28T22:25:10.556Z,89.20
2023-04-28T22:27:41.134Z,89.00
2023-04-28T22:30:11.153Z,89.00
2023-04-28T22:32:40.269Z,89.00
2023-04-28T22:35:10.214Z,88.90
2023-04-28T22:37:39.237Z,88.90
2023-04-28T22:40:09.363Z,88.80
2023-04-28T22:42:39.019Z,88.70
2023-04-28T22:45:10.993Z,88.60
2023-04-28T22:47:41.775Z,88.60
2023-04-28T22:50:11.510Z,88.50
2023-04-28T22:52:40.783Z,88.50
2023-04-28T22:55:10.658Z,88.40
2023-04-28T22:57:39.792Z,88.40
2023-04-28T23:00:11.742Z,88.30
2023-04-28T23:02:40.812Z,88.20
2023-04-28T23:05:10.309Z,88.00
2023-04-28T23:07:39.312Z,88.00
2023-04-28T23:10:09.715Z,88.00
2023-04-28T23:12:38.715Z,87.90
2023-04-28T23:15:10.185Z,87.80
2023-04-28T23:17:39.249Z,87.80
2023-04-28T23:20:09.223Z,87.90
2023-04-28T23:22:38.207Z,87.90
2023-04-28T23:25:07.992Z,88.00
2023-04-28T23:27:37.569Z,88.00
2023-04-28T23:30:07.675Z,87.90
2023-04-28T23:32:38.720Z,88.00
2023-04-28T23:35:08.419Z,88.00
2023-04-28T23:37:37.429Z,87.90
2023-04-28T23:40:07.705Z,87.90
2023-04-28T23:42:37.286Z,87.80
2023-04-28T23:45:07.276Z,87.80
2023-04-28T23:47:37.783Z,88.00
2023-04-28T23:50:08.276Z,88.20
2023-04-28T23:52:38.739Z,88.50
2023-04-28T23:55:09.596Z,88.60
2023-04-28T23:57:38.958Z,88.50
